sensor_id;sensor_type;location;lat;lon;timestamp;P1;durP1;ratioP1;P2;durP2;ratioP2
12429;SDS011;6279;42.192;24.326;2024-02-21T00:00:15;41.30;;;29.47;;
12429;SDS011;6279;42.192;24.326;2024-02-21T00:02:42;40.30;;;30.33;;
12429;SDS011;6279;42.192;24.326;2024-02-21T00:05:07;40.13;;;29.00;;
12429;SDS011;6279;42.192;24.326;2024-02-21T00:07:33;38.73;;;28.77;;
12429;SDS011;6279;42.192;24.326;2024-02-21T00:09:58;40.27;;;28.13;;
12429;SDS011;6279;42.192;24.326;2024-02-21T00:12:23;40.17;;;28.33;;
12429;SDS011;6279;42.192;24.326;2024-02-21T00:14:49;40.90;;;29.13;;
12429;SDS011;6279;42.192;24.326;2024-02-21T00:17:14;40.40;;;29.63;;
12429;SDS011;6279;42.192;24.326;2024-02-21T00:19:40;42.50;;;30.07;;
12429;SDS011;6279;42.192;24.326;2024-02-21T00:22:05;42.33;;;30.63;;
12429;SDS011;6279;42.192;24.326;2024-02-21T00:24:30;39.73;;;30.13;;
12429;SDS011;6279;42.192;24.326;2024-02-21T00:26:56;45.27;;;30.47;;
12429;SDS011;6279;42.192;24.326;2024-02-21T00:29:21;42.07;;;29.53;;
12429;SDS011;6279;42.192;24.326;2024-02-21T00:31:47;39.37;;;28.93;;
12429;SDS011;6279;42.192;24.326;2024-02-21T00:34:14;43.83;;;30.80;;
12429;SDS011;6279;42.192;24.326;2024-02-21T00:36:39;43.90;;;29.73;;
12429;SDS011;6279;42.192;24.326;2024-02-21T00:39:05;44.47;;;31.80;;
12429;SDS011;6279;42.192;24.326;2024-02-21T00:41:31;46.07;;;31.33;;
12429;SDS011;6279;42.192;24.326;2024-02-21T00:43:58;41.53;;;30.63;;
12429;SDS011;6279;42.192;24.326;2024-02-21T00:46:23;42.43;;;29.87;;
12429;SDS011;6279;42.192;24.326;2024-02-21T00:48:48;42.07;;;28.63;;
12429;SDS011;6279;42.192;24.326;2024-02-21T00:51:15;41.33;;;30.23;;
12429;SDS011;6279;42.192;24.326;2024-02-21T00:53:41;45.23;;;30.43;;
12429;SDS011;6279;42.192;24.326;2024-02-21T00:56:07;42.03;;;29.73;;
12429;SDS011;6279;42.192;24.326;2024-02-21T00:58:33;43.23;;;29.43;;
12429;SDS011;6279;42.192;24.326;2024-02-21T01:00:58;41.97;;;31.10;;
12429;SDS011;6279;42.192;24.326;2024-02-21T01:03:23;39.50;;;29.13;;
12429;SDS011;6279;42.192;24.326;2024-02-21T01:05:49;40.93;;;30.33;;
12429;SDS011;6279;42.192;24.326;2024-02-21T01:08:14;42.83;;;31.10;;
12429;SDS011;6279;42.192;24.326;2024-02-21T01:10:39;42.93;;;29.67;;
12429;SDS011;6279;42.192;24.326;2024-02-21T01:13:06;45.47;;;29.93;;
12429;SDS011;6279;42.192;24.326;2024-02-21T01:15:32;42.97;;;30.63;;
12429;SDS011;6279;42.192;24.326;2024-02-21T01:17:58;47.57;;;30.30;;
12429;SDS011;6279;42.192;24.326;2024-02-21T01:20:23;40.97;;;30.80;;
12429;SDS011;6279;42.192;24.326;2024-02-21T01:22:49;43.77;;;30.87;;
12429;SDS011;6279;42.192;24.326;2024-02-21T01:25:14;44.47;;;30.07;;
12429;SDS011;6279;42.192;24.326;2024-02-21T01:27:39;40.93;;;29.53;;
12429;SDS011;6279;42.192;24.326;2024-02-21T01:30:05;45.60;;;32.13;;
12429;SDS011;6279;42.192;24.326;2024-02-21T01:32:31;39.40;;;30.13;;
12429;SDS011;6279;42.192;24.326;2024-02-21T01:34:57;40.37;;;29.40;;
12429;SDS011;6279;42.192;24.326;2024-02-21T01:37:22;42.00;;;30.13;;
12429;SDS011;6279;42.192;24.326;2024-02-21T01:39:47;41.43;;;29.57;;
12429;SDS011;6279;42.192;24.326;2024-02-21T01:42:14;44.70;;;29.63;;
12429;SDS011;6279;42.192;24.326;2024-02-21T01:44:40;39.80;;;29.67;;
12429;SDS011;6279;42.192;24.326;2024-02-21T01:47:06;39.20;;;29.50;;
12429;SDS011;6279;42.192;24.326;2024-02-21T01:49:32;39.80;;;29.37;;
12429;SDS011;6279;42.192;24.326;2024-02-21T01:51:57;42.33;;;29.07;;
12429;SDS011;6279;42.192;24.326;2024-02-21T01:54:23;40.40;;;28.17;;
12429;SDS011;6279;42.192;24.326;2024-02-21T01:56:50;40.40;;;29.13;;
12429;SDS011;6279;42.192;24.326;2024-02-21T01:59:16;39.73;;;28.77;;
12429;SDS011;6279;42.192;24.326;2024-02-21T02:01:43;39.17;;;27.33;;
12429;SDS011;6279;42.192;24.326;2024-02-21T02:04:09;42.80;;;28.60;;
12429;SDS011;6279;42.192;24.326;2024-02-21T02:06:34;36.50;;;26.03;;
12429;SDS011;6279;42.192;24.326;2024-02-21T02:09:00;38.90;;;28.43;;
12429;SDS011;6279;42.192;24.326;2024-02-21T02:11:26;37.80;;;27.90;;
12429;SDS011;6279;42.192;24.326;2024-02-21T02:13:51;39.93;;;26.43;;
12429;SDS011;6279;42.192;24.326;2024-02-21T02:16:17;36.13;;;27.07;;
12429;SDS011;6279;42.192;24.326;2024-02-21T02:18:42;37.20;;;26.93;;
12429;SDS011;6279;42.192;24.326;2024-02-21T02:21:10;35.13;;;25.03;;
12429;SDS011;6279;42.192;24.326;2024-02-21T02:23:46;36.00;;;26.83;;
12429;SDS011;6279;42.192;24.326;2024-02-21T02:26:11;36.93;;;26.43;;
12429;SDS011;6279;42.192;24.326;2024-02-21T02:28:36;35.23;;;25.13;;
12429;SDS011;6279;42.192;24.326;2024-02-21T02:31:02;37.20;;;26.53;;
12429;SDS011;6279;42.192;24.326;2024-02-21T02:33:27;33.53;;;23.53;;
12429;SDS011;6279;42.192;24.326;2024-02-21T02:35:53;35.23;;;25.03;;
12429;SDS011;6279;42.192;24.326;2024-02-21T02:38:18;34.47;;;25.07;;
12429;SDS011;6279;42.192;24.326;2024-02-21T02:40:44;33.53;;;25.47;;
12429;SDS011;6279;42.192;24.326;2024-02-21T02:43:09;39.53;;;26.87;;
12429;SDS011;6279;42.192;24.326;2024-02-21T02:45:34;34.27;;;25.20;;
12429;SDS011;6279;42.192;24.326;2024-02-21T02:48:00;33.97;;;24.97;;
12429;SDS011;6279;42.192;24.326;2024-02-21T02:50:26;35.53;;;24.83;;
12429;SDS011;6279;42.192;24.326;2024-02-21T02:52:52;34.37;;;24.23;;
12429;SDS011;6279;42.192;24.326;2024-02-21T02:55:25;34.37;;;24.47;;
12429;SDS011;6279;42.192;24.326;2024-02-21T02:57:51;34.20;;;24.93;;
12429;SDS011;6279;42.192;24.326;2024-02-21T03:00:16;31.63;;;23.70;;
12429;SDS011;6279;42.192;24.326;2024-02-21T03:02:42;33.47;;;25.10;;
12429;SDS011;6279;42.192;24.326;2024-02-21T03:05:12;32.77;;;24.17;;
12429;SDS011;6279;42.192;24.326;2024-02-21T03:07:39;30.93;;;23.60;;
12429;SDS011;6279;42.192;24.326;2024-02-21T03:10:05;31.27;;;23.90;;
12429;SDS011;6279;42.192;24.326;2024-02-21T03:12:30;32.13;;;23.27;;
12429;SDS011;6279;42.192;24.326;2024-02-21T03:14:56;31.93;;;23.17;;
12429;SDS011;6279;42.192;24.326;2024-02-21T03:17:21;28.83;;;22.23;;
12429;SDS011;6279;42.192;24.326;2024-02-21T03:19:46;29.33;;;22.10;;
12429;SDS011;6279;42.192;24.326;2024-02-21T03:22:13;30.07;;;22.70;;
12429;SDS011;6279;42.192;24.326;2024-02-21T03:24:46;29.57;;;22.30;;
12429;SDS011;6279;42.192;24.326;2024-02-21T03:27:11;43.20;;;28.07;;
12429;SDS011;6279;42.192;24.326;2024-02-21T03:29:36;53.67;;;33.23;;
12429;SDS011;6279;42.192;24.326;2024-02-21T03:32:02;40.37;;;26.00;;
12429;SDS011;6279;42.192;24.326;2024-02-21T03:34:27;34.40;;;24.87;;
12429;SDS011;6279;42.192;24.326;2024-02-21T03:36:53;31.37;;;23.57;;
12429;SDS011;6279;42.192;24.326;2024-02-21T03:39:18;30.97;;;23.83;;
12429;SDS011;6279;42.192;24.326;2024-02-21T03:41:43;35.63;;;25.13;;
12429;SDS011;6279;42.192;24.326;2024-02-21T03:44:09;31.13;;;25.33;;
12429;SDS011;6279;42.192;24.326;2024-02-21T03:46:34;32.20;;;25.50;;
12429;SDS011;6279;42.192;24.326;2024-02-21T03:49:00;31.23;;;23.53;;
12429;SDS011;6279;42.192;24.326;2024-02-21T03:51:26;30.87;;;24.07;;
12429;SDS011;6279;42.192;24.326;2024-02-21T03:53:51;30.73;;;22.57;;
12429;SDS011;6279;42.192;24.326;2024-02-21T03:56:17;31.07;;;22.97;;
12429;SDS011;6279;42.192;24.326;2024-02-21T03:58:42;29.50;;;22.23;;
12429;SDS011;6279;42.192;24.326;2024-02-21T04:01:08;29.27;;;22.00;;
12429;SDS011;6279;42.192;24.326;2024-02-21T04:03:33;28.50;;;22.03;;
12429;SDS011;6279;42.192;24.326;2024-02-21T04:05:58;31.47;;;22.20;;
12429;SDS011;6279;42.192;24.326;2024-02-21T04:08:25;29.13;;;21.90;;
12429;SDS011;6279;42.192;24.326;2024-02-21T04:10:51;30.67;;;21.20;;
12429;SDS011;6279;42.192;24.326;2024-02-21T04:13:16;28.13;;;21.10;;
12429;SDS011;6279;42.192;24.326;2024-02-21T04:15:42;26.97;;;20.27;;
12429;SDS011;6279;42.192;24.326;2024-02-21T04:18:07;31.53;;;25.37;;
12429;SDS011;6279;42.192;24.326;2024-02-21T04:20:33;42.60;;;35.50;;
12429;SDS011;6279;42.192;24.326;2024-02-21T04:22:59;55.13;;;45.10;;
12429;SDS011;6279;42.192;24.326;2024-02-21T04:25:25;54.33;;;41.80;;
12429;SDS011;6279;42.192;24.326;2024-02-21T04:27:51;44.47;;;35.57;;
12429;SDS011;6279;42.192;24.326;2024-02-21T04:30:16;36.53;;;28.43;;
12429;SDS011;6279;42.192;24.326;2024-02-21T04:32:42;26.70;;;21.03;;
12429;SDS011;6279;42.192;24.326;2024-02-21T04:35:07;29.57;;;21.77;;
12429;SDS011;6279;42.192;24.326;2024-02-21T04:37:33;25.73;;;20.30;;
12429;SDS011;6279;42.192;24.326;2024-02-21T04:39:58;22.73;;;18.47;;
12429;SDS011;6279;42.192;24.326;2024-02-21T04:42:24;24.17;;;17.33;;
12429;SDS011;6279;42.192;24.326;2024-02-21T04:44:49;27.57;;;20.60;;
12429;SDS011;6279;42.192;24.326;2024-02-21T04:47:15;31.97;;;23.23;;
12429;SDS011;6279;42.192;24.326;2024-02-21T04:49:40;29.47;;;22.10;;
12429;SDS011;6279;42.192;24.326;2024-02-21T04:52:06;24.37;;;19.00;;
12429;SDS011;6279;42.192;24.326;2024-02-21T04:54:31;21.97;;;16.07;;
12429;SDS011;6279;42.192;24.326;2024-02-21T04:56:57;18.73;;;15.77;;
12429;SDS011;6279;42.192;24.326;2024-02-21T04:59:22;18.03;;;14.00;;
12429;SDS011;6279;42.192;24.326;2024-02-21T05:01:47;14.20;;;11.10;;
12429;SDS011;6279;42.192;24.326;2024-02-21T05:04:13;13.37;;;10.60;;
12429;SDS011;6279;42.192;24.326;2024-02-21T05:06:39;12.00;;;9.97;;
12429;SDS011;6279;42.192;24.326;2024-02-21T05:09:12;13.07;;;10.20;;
12429;SDS011;6279;42.192;24.326;2024-02-21T05:11:37;14.57;;;11.30;;
12429;SDS011;6279;42.192;24.326;2024-02-21T05:14:03;14.43;;;10.80;;
12429;SDS011;6279;42.192;24.326;2024-02-21T05:16:29;9.57;;;8.57;;
12429;SDS011;6279;42.192;24.326;2024-02-21T05:18:55;10.00;;;7.87;;
12429;SDS011;6279;42.192;24.326;2024-02-21T05:21:21;8.77;;;6.80;;
12429;SDS011;6279;42.192;24.326;2024-02-21T05:23:48;8.60;;;6.77;;
12429;SDS011;6279;42.192;24.326;2024-02-21T05:26:24;7.97;;;6.80;;
12429;SDS011;6279;42.192;24.326;2024-02-21T05:28:50;7.70;;;6.90;;
12429;SDS011;6279;42.192;24.326;2024-02-21T05:31:17;12.00;;;9.67;;
12429;SDS011;6279;42.192;24.326;2024-02-21T05:33:43;20.83;;;16.93;;
12429;SDS011;6279;42.192;24.326;2024-02-21T05:36:09;24.23;;;19.97;;
12429;SDS011;6279;42.192;24.326;2024-02-21T05:38:34;21.40;;;17.13;;
12429;SDS011;6279;42.192;24.326;2024-02-21T05:41:00;16.27;;;13.67;;
12429;SDS011;6279;42.192;24.326;2024-02-21T05:43:26;11.40;;;9.77;;
12429;SDS011;6279;42.192;24.326;2024-02-21T05:45:51;11.23;;;7.70;;
12429;SDS011;6279;42.192;24.326;2024-02-21T05:48:17;8.10;;;7.07;;
12429;SDS011;6279;42.192;24.326;2024-02-21T05:50:44;8.47;;;7.20;;
12429;SDS011;6279;42.192;24.326;2024-02-21T05:53:10;9.60;;;7.23;;
12429;SDS011;6279;42.192;24.326;2024-02-21T05:55:36;9.83;;;7.60;;
12429;SDS011;6279;42.192;24.326;2024-02-21T05:58:01;9.20;;;7.73;;
12429;SDS011;6279;42.192;24.326;2024-02-21T06:00:31;10.40;;;8.60;;
12429;SDS011;6279;42.192;24.326;2024-02-21T06:02:56;9.60;;;7.53;;
12429;SDS011;6279;42.192;24.326;2024-02-21T06:05:22;12.17;;;10.07;;
12429;SDS011;6279;42.192;24.326;2024-02-21T06:07:47;17.57;;;12.63;;
12429;SDS011;6279;42.192;24.326;2024-02-21T06:10:12;19.90;;;16.47;;
12429;SDS011;6279;42.192;24.326;2024-02-21T06:12:38;18.07;;;15.80;;
12429;SDS011;6279;42.192;24.326;2024-02-21T06:15:03;23.43;;;19.53;;
12429;SDS011;6279;42.192;24.326;2024-02-21T06:17:29;25.90;;;22.70;;
12429;SDS011;6279;42.192;24.326;2024-02-21T06:19:54;20.67;;;17.20;;
12429;SDS011;6279;42.192;24.326;2024-02-21T06:22:20;11.20;;;10.03;;
12429;SDS011;6279;42.192;24.326;2024-02-21T06:24:45;12.23;;;9.33;;
12429;SDS011;6279;42.192;24.326;2024-02-21T06:27:11;10.47;;;9.33;;
12429;SDS011;6279;42.192;24.326;2024-02-21T06:29:36;10.50;;;8.97;;
12429;SDS011;6279;42.192;24.326;2024-02-21T06:32:02;9.80;;;8.80;;
12429;SDS011;6279;42.192;24.326;2024-02-21T06:34:28;12.43;;;9.80;;
12429;SDS011;6279;42.192;24.326;2024-02-21T06:36:53;12.93;;;10.00;;
12429;SDS011;6279;42.192;24.326;2024-02-21T06:39:18;15.33;;;12.37;;
12429;SDS011;6279;42.192;24.326;2024-02-21T06:41:44;33.03;;;26.73;;
12429;SDS011;6279;42.192;24.326;2024-02-21T06:44:10;18.17;;;14.00;;
12429;SDS011;6279;42.192;24.326;2024-02-21T06:46:35;15.53;;;12.30;;
12429;SDS011;6279;42.192;24.326;2024-02-21T06:49:01;15.43;;;12.20;;
12429;SDS011;6279;42.192;24.326;2024-02-21T06:51:28;14.07;;;11.30;;
12429;SDS011;6279;42.192;24.326;2024-02-21T06:53:54;15.10;;;11.63;;
12429;SDS011;6279;42.192;24.326;2024-02-21T06:56:19;14.80;;;12.00;;
12429;SDS011;6279;42.192;24.326;2024-02-21T06:58:45;11.13;;;9.93;;
12429;SDS011;6279;42.192;24.326;2024-02-21T07:01:11;15.40;;;10.37;;
12429;SDS011;6279;42.192;24.326;2024-02-21T07:03:36;10.83;;;9.20;;
12429;SDS011;6279;42.192;24.326;2024-02-21T07:06:02;14.57;;;9.93;;
12429;SDS011;6279;42.192;24.326;2024-02-21T07:08:28;14.50;;;11.60;;
12429;SDS011;6279;42.192;24.326;2024-02-21T07:10:53;14.77;;;11.50;;
12429;SDS011;6279;42.192;24.326;2024-02-21T07:13:19;16.47;;;11.93;;
12429;SDS011;6279;42.192;24.326;2024-02-21T07:15:44;15.50;;;13.90;;
12429;SDS011;6279;42.192;24.326;2024-02-21T07:18:09;14.93;;;12.10;;
12429;SDS011;6279;42.192;24.326;2024-02-21T07:20:35;13.40;;;11.57;;
12429;SDS011;6279;42.192;24.326;2024-02-21T07:23:02;14.93;;;12.70;;
12429;SDS011;6279;42.192;24.326;2024-02-21T07:25:28;11.67;;;9.27;;
12429;SDS011;6279;42.192;24.326;2024-02-21T07:27:53;9.47;;;8.43;;
12429;SDS011;6279;42.192;24.326;2024-02-21T07:30:19;9.80;;;8.20;;
12429;SDS011;6279;42.192;24.326;2024-02-21T07:32:44;7.90;;;7.10;;
12429;SDS011;6279;42.192;24.326;2024-02-21T07:35:10;9.77;;;7.30;;
12429;SDS011;6279;42.192;24.326;2024-02-21T07:37:36;7.47;;;6.77;;
12429;SDS011;6279;42.192;24.326;2024-02-21T07:40:03;7.53;;;6.40;;
12429;SDS011;6279;42.192;24.326;2024-02-21T07:42:30;7.37;;;6.53;;
12429;SDS011;6279;42.192;24.326;2024-02-21T07:44:56;6.53;;;5.60;;
12429;SDS011;6279;42.192;24.326;2024-02-21T07:47:22;5.80;;;5.17;;
12429;SDS011;6279;42.192;24.326;2024-02-21T07:49:47;5.73;;;4.90;;
12429;SDS011;6279;42.192;24.326;2024-02-21T07:52:14;7.57;;;5.40;;
12429;SDS011;6279;42.192;24.326;2024-02-21T07:54:40;6.00;;;5.50;;
12429;SDS011;6279;42.192;24.326;2024-02-21T07:57:06;6.63;;;5.40;;
12429;SDS011;6279;42.192;24.326;2024-02-21T07:59:32;7.27;;;5.70;;
12429;SDS011;6279;42.192;24.326;2024-02-21T08:01:58;6.33;;;5.73;;
12429;SDS011;6279;42.192;24.326;2024-02-21T08:04:23;6.80;;;5.80;;
12429;SDS011;6279;42.192;24.326;2024-02-21T08:06:52;6.20;;;5.60;;
12429;SDS011;6279;42.192;24.326;2024-02-21T08:09:26;6.20;;;5.60;;
12429;SDS011;6279;42.192;24.326;2024-02-21T08:11:52;6.73;;;6.03;;
12429;SDS011;6279;42.192;24.326;2024-02-21T08:14:19;6.43;;;5.17;;
12429;SDS011;6279;42.192;24.326;2024-02-21T08:16:44;6.90;;;5.37;;
12429;SDS011;6279;42.192;24.326;2024-02-21T08:19:10;5.70;;;5.20;;
12429;SDS011;6279;42.192;24.326;2024-02-21T08:21:35;7.10;;;5.73;;
12429;SDS011;6279;42.192;24.326;2024-02-21T08:24:01;7.13;;;5.63;;
12429;SDS011;6279;42.192;24.326;2024-02-21T08:26:26;7.35;;;6.03;;
12429;SDS011;6279;42.192;24.326;2024-02-21T08:28:55;7.05;;;6.35;;
12429;SDS011;6279;42.192;24.326;2024-02-21T08:31:23;7.43;;;6.72;;
12429;SDS011;6279;42.192;24.326;2024-02-21T08:33:49;8.23;;;7.35;;
12429;SDS011;6279;42.192;24.326;2024-02-21T08:36:18;7.85;;;7.00;;
12429;SDS011;6279;42.192;24.326;2024-02-21T08:38:44;7.28;;;5.88;;
12429;SDS011;6279;42.192;24.326;2024-02-21T08:41:10;6.38;;;5.88;;
12429;SDS011;6279;42.192;24.326;2024-02-21T08:43:36;7.07;;;6.47;;
12429;SDS011;6279;42.192;24.326;2024-02-21T08:46:01;11.45;;;10.35;;
12429;SDS011;6279;42.192;24.326;2024-02-21T08:48:27;8.60;;;7.80;;
12429;SDS011;6279;42.192;24.326;2024-02-21T08:50:52;7.25;;;6.30;;
12429;SDS011;6279;42.192;24.326;2024-02-21T08:53:19;7.03;;;6.15;;
12429;SDS011;6279;42.192;24.326;2024-02-21T08:55:45;6.25;;;5.65;;
12429;SDS011;6279;42.192;24.326;2024-02-21T08:58:10;7.55;;;6.07;;
12429;SDS011;6279;42.192;24.326;2024-02-21T09:00:36;9.05;;;5.97;;
12429;SDS011;6279;42.192;24.326;2024-02-21T09:03:02;4.80;;;4.30;;
12429;SDS011;6279;42.192;24.326;2024-02-21T09:05:27;5.15;;;4.65;;
12429;SDS011;6279;42.192;24.326;2024-02-21T09:07:53;6.10;;;5.57;;
12429;SDS011;6279;42.192;24.326;2024-02-21T09:10:18;8.82;;;4.60;;
12429;SDS011;6279;42.192;24.326;2024-02-21T09:12:44;6.25;;;5.75;;
12429;SDS011;6279;42.192;24.326;2024-02-21T09:15:09;6.32;;;5.82;;
12429;SDS011;6279;42.192;24.326;2024-02-21T09:17:35;8.65;;;6.53;;
12429;SDS011;6279;42.192;24.326;2024-02-21T09:20:01;5.57;;;4.05;;
12429;SDS011;6279;42.192;24.326;2024-02-21T09:22:29;4.63;;;3.92;;
12429;SDS011;6279;42.192;24.326;2024-02-21T09:24:54;3.75;;;3.45;;
12429;SDS011;6279;42.192;24.326;2024-02-21T09:27:20;8.88;;;3.78;;
12429;SDS011;6279;42.192;24.326;2024-02-21T09:29:45;3.55;;;3.25;;
12429;SDS011;6279;42.192;24.326;2024-02-21T09:32:11;5.78;;;3.33;;
12429;SDS011;6279;42.192;24.326;2024-02-21T09:34:37;3.83;;;3.22;;
12429;SDS011;6279;42.192;24.326;2024-02-21T09:37:02;4.07;;;3.58;;
12429;SDS011;6279;42.192;24.326;2024-02-21T09:39:28;4.40;;;3.53;;
12429;SDS011;6279;42.192;24.326;2024-02-21T09:41:56;4.47;;;3.50;;
12429;SDS011;6279;42.192;24.326;2024-02-21T09:44:24;5.38;;;4.30;;
12429;SDS011;6279;42.192;24.326;2024-02-21T09:47:09;4.47;;;3.63;;
12429;SDS011;6279;42.192;24.326;2024-02-21T09:49:37;4.53;;;4.10;;
12429;SDS011;6279;42.192;24.326;2024-02-21T09:52:06;8.55;;;4.30;;
12429;SDS011;6279;42.192;24.326;2024-02-21T09:54:35;3.97;;;3.45;;
12429;SDS011;6279;42.192;24.326;2024-02-21T09:57:01;3.50;;;3.20;;
12429;SDS011;6279;42.192;24.326;2024-02-21T09:59:28;3.75;;;3.30;;
12429;SDS011;6279;42.192;24.326;2024-02-21T10:01:56;3.20;;;2.90;;
12429;SDS011;6279;42.192;24.326;2024-02-21T10:04:22;4.03;;;3.58;;
12429;SDS011;6279;42.192;24.326;2024-02-21T10:06:48;3.72;;;3.42;;
12429;SDS011;6279;42.192;24.326;2024-02-21T10:09:23;5.40;;;4.18;;
12429;SDS011;6279;42.192;24.326;2024-02-21T10:11:52;4.18;;;3.13;;
12429;SDS011;6279;42.192;24.326;2024-02-21T10:14:17;10.15;;;4.15;;
12429;SDS011;6279;42.192;24.326;2024-02-21T10:16:43;3.45;;;3.15;;
12429;SDS011;6279;42.192;24.326;2024-02-21T10:19:15;9.73;;;8.10;;
12429;SDS011;6279;42.192;24.326;2024-02-21T10:21:58;9.25;;;7.90;;
12429;SDS011;6279;42.192;24.326;2024-02-21T10:24:27;5.70;;;4.53;;
12429;SDS011;6279;42.192;24.326;2024-02-21T10:27:03;4.37;;;3.00;;
12429;SDS011;6279;42.192;24.326;2024-02-21T10:29:30;4.35;;;3.63;;
12429;SDS011;6279;42.192;24.326;2024-02-21T10:32:17;3.75;;;3.38;;
12429;SDS011;6279;42.192;24.326;2024-02-21T10:34:42;3.45;;;3.10;;
12429;SDS011;6279;42.192;24.326;2024-02-21T10:37:08;3.55;;;3.25;;
12429;SDS011;6279;42.192;24.326;2024-02-21T10:39:37;3.40;;;3.10;;
12429;SDS011;6279;42.192;24.326;2024-02-21T10:42:03;4.05;;;3.65;;
12429;SDS011;6279;42.192;24.326;2024-02-21T10:44:30;3.60;;;3.30;;
12429;SDS011;6279;42.192;24.326;2024-02-21T10:46:57;3.30;;;3.00;;
12429;SDS011;6279;42.192;24.326;2024-02-21T10:49:27;3.80;;;3.40;;
12429;SDS011;6279;42.192;24.326;2024-02-21T10:51:59;4.37;;;3.30;;
12429;SDS011;6279;42.192;24.326;2024-02-21T10:56:53;3.13;;;2.40;;
12429;SDS011;6279;42.192;24.326;2024-02-21T10:59:22;2.63;;;2.30;;
12429;SDS011;6279;42.192;24.326;2024-02-21T11:01:48;5.32;;;2.60;;
12429;SDS011;6279;42.192;24.326;2024-02-21T11:04:14;2.65;;;2.40;;
12429;SDS011;6279;42.192;24.326;2024-02-21T11:06:40;3.47;;;2.70;;
12429;SDS011;6279;42.192;24.326;2024-02-21T11:09:09;3.88;;;2.75;;
12429;SDS011;6279;42.192;24.326;2024-02-21T11:11:39;3.85;;;2.75;;
12429;SDS011;6279;42.192;24.326;2024-02-21T11:14:10;4.32;;;2.85;;
12429;SDS011;6279;42.192;24.326;2024-02-21T11:16:37;4.65;;;3.78;;
12429;SDS011;6279;42.192;24.326;2024-02-21T11:19:26;3.33;;;3.03;;
12429;SDS011;6279;42.192;24.326;2024-02-21T11:21:50;3.03;;;2.55;;
12429;SDS011;6279;42.192;24.326;2024-02-21T11:24:26;3.30;;;3.00;;
12429;SDS011;6279;42.192;24.326;2024-02-21T11:27:07;6.73;;;3.07;;
12429;SDS011;6279;42.192;24.326;2024-02-21T11:32:16;2.60;;;2.40;;
12429;SDS011;6279;42.192;24.326;2024-02-21T11:34:56;3.70;;;3.20;;
12429;SDS011;6279;42.192;24.326;2024-02-21T11:37:32;3.13;;;2.83;;
12429;SDS011;6279;42.192;24.326;2024-02-21T11:39:58;3.20;;;2.88;;
12429;SDS011;6279;42.192;24.326;2024-02-21T11:42:25;3.00;;;2.70;;
12429;SDS011;6279;42.192;24.326;2024-02-21T11:44:54;2.60;;;2.40;;
12429;SDS011;6279;42.192;24.326;2024-02-21T11:47:22;2.83;;;2.53;;
12429;SDS011;6279;42.192;24.326;2024-02-21T11:49:48;2.72;;;2.33;;
12429;SDS011;6279;42.192;24.326;2024-02-21T11:52:19;3.90;;;2.53;;
12429;SDS011;6279;42.192;24.326;2024-02-21T11:54:49;2.97;;;2.67;;
12429;SDS011;6279;42.192;24.326;2024-02-21T11:57:29;3.15;;;2.72;;
12429;SDS011;6279;42.192;24.326;2024-02-21T11:59:54;4.55;;;3.00;;
12429;SDS011;6279;42.192;24.326;2024-02-21T12:02:20;4.25;;;2.88;;
12429;SDS011;6279;42.192;24.326;2024-02-21T12:04:45;3.47;;;3.17;;
12429;SDS011;6279;42.192;24.326;2024-02-21T12:07:11;3.05;;;2.75;;
12429;SDS011;6279;42.192;24.326;2024-02-21T12:09:36;4.90;;;3.33;;
12429;SDS011;6279;42.192;24.326;2024-02-21T12:14:29;4.17;;;3.13;;
12429;SDS011;6279;42.192;24.326;2024-02-21T12:16:57;3.93;;;3.17;;
12429;SDS011;6279;42.192;24.326;2024-02-21T12:19:28;3.17;;;2.87;;
12429;SDS011;6279;42.192;24.326;2024-02-21T12:21:54;2.93;;;2.67;;
12429;SDS011;6279;42.192;24.326;2024-02-21T12:24:23;3.60;;;3.30;;
12429;SDS011;6279;42.192;24.326;2024-02-21T12:26:50;6.50;;;3.37;;
12429;SDS011;6279;42.192;24.326;2024-02-21T12:29:17;4.57;;;2.93;;
12429;SDS011;6279;42.192;24.326;2024-02-21T12:31:42;5.33;;;3.30;;
12429;SDS011;6279;42.192;24.326;2024-02-21T12:34:08;4.00;;;2.77;;
12429;SDS011;6279;42.192;24.326;2024-02-21T12:36:36;7.10;;;3.07;;
12429;SDS011;6279;42.192;24.326;2024-02-21T12:39:06;3.13;;;2.73;;
12429;SDS011;6279;42.192;24.326;2024-02-21T12:41:32;4.80;;;3.03;;
12429;SDS011;6279;42.192;24.326;2024-02-21T12:43:58;4.43;;;3.53;;
12429;SDS011;6279;42.192;24.326;2024-02-21T12:46:23;4.27;;;3.53;;
12429;SDS011;6279;42.192;24.326;2024-02-21T12:48:49;9.77;;;6.07;;
12429;SDS011;6279;42.192;24.326;2024-02-21T12:51:15;4.40;;;3.50;;
12429;SDS011;6279;42.192;24.326;2024-02-21T12:53:41;4.97;;;3.30;;
12429;SDS011;6279;42.192;24.326;2024-02-21T12:56:06;7.10;;;3.37;;
12429;SDS011;6279;42.192;24.326;2024-02-21T12:58:32;3.70;;;2.93;;
12429;SDS011;6279;42.192;24.326;2024-02-21T13:00:58;4.20;;;3.80;;
12429;SDS011;6279;42.192;24.326;2024-02-21T13:03:24;4.17;;;3.50;;
12429;SDS011;6279;42.192;24.326;2024-02-21T13:05:50;4.40;;;3.50;;
12429;SDS011;6279;42.192;24.326;2024-02-21T13:08:16;3.97;;;3.37;;
12429;SDS011;6279;42.192;24.326;2024-02-21T13:10:48;4.87;;;3.30;;
12429;SDS011;6279;42.192;24.326;2024-02-21T13:13:14;4.43;;;3.13;;
12429;SDS011;6279;42.192;24.326;2024-02-21T13:15:39;3.70;;;3.27;;
12429;SDS011;6279;42.192;24.326;2024-02-21T13:18:08;4.80;;;3.17;;
12429;SDS011;6279;42.192;24.326;2024-02-21T13:20:33;4.70;;;3.50;;
12429;SDS011;6279;42.192;24.326;2024-02-21T13:22:59;6.00;;;4.17;;
12429;SDS011;6279;42.192;24.326;2024-02-21T13:25:24;6.60;;;4.10;;
12429;SDS011;6279;42.192;24.326;2024-02-21T13:27:49;5.93;;;4.10;;
12429;SDS011;6279;42.192;24.326;2024-02-21T13:30:15;4.93;;;3.87;;
12429;SDS011;6279;42.192;24.326;2024-02-21T13:32:41;4.40;;;4.00;;
12429;SDS011;6279;42.192;24.326;2024-02-21T13:35:07;7.50;;;4.50;;
12429;SDS011;6279;42.192;24.326;2024-02-21T13:37:33;5.53;;;4.00;;
12429;SDS011;6279;42.192;24.326;2024-02-21T13:39:59;7.43;;;4.00;;
12429;SDS011;6279;42.192;24.326;2024-02-21T13:42:25;6.37;;;4.87;;
12429;SDS011;6279;42.192;24.326;2024-02-21T13:44:52;6.50;;;3.87;;
12429;SDS011;6279;42.192;24.326;2024-02-21T13:47:18;8.03;;;4.90;;
12429;SDS011;6279;42.192;24.326;2024-02-21T13:49:43;7.27;;;4.60;;
12429;SDS011;6279;42.192;24.326;2024-02-21T13:52:09;6.53;;;3.73;;
12429;SDS011;6279;42.192;24.326;2024-02-21T13:54:34;4.20;;;3.80;;
12429;SDS011;6279;42.192;24.326;2024-02-21T13:57:00;4.13;;;3.57;;
12429;SDS011;6279;42.192;24.326;2024-02-21T13:59:27;5.37;;;4.07;;
12429;SDS011;6279;42.192;24.326;2024-02-21T14:01:53;6.43;;;4.23;;
12429;SDS011;6279;42.192;24.326;2024-02-21T14:04:18;6.23;;;3.50;;
12429;SDS011;6279;42.192;24.326;2024-02-21T14:06:43;4.10;;;3.50;;
12429;SDS011;6279;42.192;24.326;2024-02-21T14:09:09;4.77;;;3.63;;
12429;SDS011;6279;42.192;24.326;2024-02-21T14:11:36;9.73;;;6.27;;
12429;SDS011;6279;42.192;24.326;2024-02-21T14:14:02;4.47;;;3.70;;
12429;SDS011;6279;42.192;24.326;2024-02-21T14:16:28;6.03;;;4.20;;
12429;SDS011;6279;42.192;24.326;2024-02-21T14:18:54;5.20;;;3.63;;
12429;SDS011;6279;42.192;24.326;2024-02-21T14:21:20;8.17;;;3.90;;
12429;SDS011;6279;42.192;24.326;2024-02-21T14:23:45;7.33;;;3.47;;
12429;SDS011;6279;42.192;24.326;2024-02-21T14:26:10;4.93;;;3.23;;
12429;SDS011;6279;42.192;24.326;2024-02-21T14:28:37;3.50;;;3.20;;
12429;SDS011;6279;42.192;24.326;2024-02-21T14:31:02;6.23;;;3.53;;
12429;SDS011;6279;42.192;24.326;2024-02-21T14:33:31;5.00;;;3.67;;
12429;SDS011;6279;42.192;24.326;2024-02-21T14:35:56;5.70;;;3.67;;
12429;SDS011;6279;42.192;24.326;2024-02-21T14:38:21;5.70;;;4.07;;